createdAt,value
2023-03-29T00:00:44.533Z,0
2023-03-29T00:01:47.359Z,0
2023-03-29T00:03:40.135Z,0
2023-03-29T00:05:40.034Z,0
2023-03-29T00:06:40.035Z,0
2023-03-29T00:07:40.037Z,0
2023-03-29T00:08:40.073Z,0
2023-03-29T00:10:40.042Z,0
2023-03-29T00:11:40.040Z,0
2023-03-29T00:12:40.032Z,0
2023-03-29T00:13:40.182Z,0
2023-03-29T00:15:40.043Z,0
2023-03-29T00:16:40.057Z,0
2023-03-29T00:17:40.107Z,0
2023-03-29T00:18:40.055Z,0
2023-03-29T00:19:40.042Z,0
2023-03-29T00:20:41.568Z,0
2023-03-29T00:21:44.822Z,0
2023-03-29T00:22:47.556Z,0
2023-03-29T00:24:40.030Z,0
2023-03-29T00:25:40.042Z,0
2023-03-29T00:26:40.041Z,0
2023-03-29T00:27:40.040Z,0
2023-03-29T00:28:40.046Z,0
2023-03-29T00:29:40.043Z,0
2023-03-29T00:30:40.042Z,0
2023-03-29T00:31:40.150Z,0
2023-03-29T00:32:40.056Z,0
2023-03-29T00:33:40.044Z,0
2023-03-29T00:34:40.038Z,0
2023-03-29T00:35:40.041Z,0
2023-03-29T00:36:40.030Z,0
2023-03-29T00:37:40.063Z,0
2023-03-29T00:38:40.052Z,0
2023-03-29T00:39:40.039Z,0
2023-03-29T00:40:40.034Z,0
2023-03-29T00:41:41.649Z,0
2023-03-29T00:42:44.694Z,0
2023-03-29T00:43:47.652Z,0
2023-03-29T00:45:40.193Z,0
2023-03-29T00:46:40.378Z,0
2023-03-29T00:48:40.038Z,0
2023-03-29T00:49:40.037Z,0
2023-03-29T00:50:40.037Z,0
2023-03-29T00:51:40.042Z,0
2023-03-29T00:52:40.056Z,0
2023-03-29T00:54:40.041Z,0
2023-03-29T00:55:40.040Z,0
2023-03-29T00:56:40.265Z,0
2023-03-29T00:57:40.053Z,0
2023-03-29T00:59:40.046Z,0
2023-03-29T01:00:40.040Z,0
2023-03-29T01:01:40.041Z,0
2023-03-29T01:02:40.187Z,0
2023-03-29T01:03:42.087Z,0
2023-03-29T01:04:44.799Z,0
2023-03-29T01:06:40.076Z,0
2023-03-29T01:07:40.049Z,0
2023-03-29T01:09:40.039Z,0
2023-03-29T01:10:40.047Z,0
2023-03-29T01:11:40.048Z,0
2023-03-29T01:12:40.051Z,0
2023-03-29T01:13:40.039Z,0
2023-03-29T01:14:40.048Z,0
2023-03-29T01:16:40.079Z,0
2023-03-29T01:17:40.111Z,0
2023-03-29T01:19:40.040Z,0
2023-03-29T01:20:40.049Z,0
2023-03-29T01:21:40.054Z,0
2023-03-29T01:22:40.065Z,0
2023-03-29T01:24:42.187Z,0
2023-03-29T01:25:44.954Z,0
2023-03-29T01:27:40.058Z,0
2023-03-29T01:28:40.046Z,0
2023-03-29T01:29:40.040Z,0
2023-03-29T01:30:40.047Z,0
2023-03-29T01:31:40.076Z,0
2023-03-29T01:32:40.066Z,0
2023-03-29T01:34:40.050Z,0
2023-03-29T01:35:40.075Z,0
2023-03-29T01:36:40.051Z,0
2023-03-29T01:37:40.065Z,0
2023-03-29T01:39:40.034Z,0
2023-03-29T01:40:40.061Z,0
2023-03-29T01:41:40.041Z,0
2023-03-29T01:42:40.074Z,0
2023-03-29T01:44:40.048Z,0
2023-03-29T01:45:42.173Z,0
2023-03-29T01:46:44.988Z,0
2023-03-29T01:48:40.063Z,0
2023-03-29T01:49:40.068Z,0
2023-03-29T01:50:40.045Z,0
2023-03-29T01:51:40.041Z,0
2023-03-29T01:52:40.065Z,0
2023-03-29T01:54:40.053Z,0
2023-03-29T01:55:40.067Z,0
2023-03-29T01:56:40.105Z,0
2023-03-29T01:57:40.065Z,0
2023-03-29T01:59:40.038Z,0
2023-03-29T02:00:40.029Z,0
2023-03-29T02:01:40.120Z,0
2023-03-29T02:02:40.123Z,0
2023-03-29T02:03:40.076Z,0
2023-03-29T02:04:40.043Z,0
2023-03-29T02:05:40.045Z,0
2023-03-29T02:06:42.307Z,0
2023-03-29T02:07:45.115Z,0
2023-03-29T02:09:40.049Z,0
2023-03-29T02:10:40.061Z,0
2023-03-29T02:11:40.042Z,0
2023-03-29T02:12:40.047Z,0
2023-03-29T02:13:40.096Z,0
2023-03-29T02:15:40.076Z,0
2023-03-29T02:16:40.042Z,0
2023-03-29T02:17:40.154Z,0
2023-03-29T02:18:40.051Z,0
2023-03-29T02:20:40.051Z,0
2023-03-29T02:21:40.038Z,0
2023-03-29T02:22:40.038Z,0
2023-03-29T02:23:40.053Z,0
2023-03-29T02:24:40.071Z,0
2023-03-29T02:26:40.042Z,0
2023-03-29T02:27:42.456Z,0
2023-03-29T02:28:45.140Z,0
2023-03-29T02:30:40.059Z,0
2023-03-29T02:31:40.061Z,0
2023-03-29T02:32:40.103Z,0
2023-03-29T02:34:40.110Z,0
2023-03-29T02:36:40.033Z,0
2023-03-29T02:37:40.064Z,0
2023-03-29T02:39:40.039Z,0
2023-03-29T02:40:40.055Z,0
2023-03-29T02:42:40.064Z,0
2023-03-29T02:44:40.053Z,0
2023-03-29T02:45:40.055Z,0
2023-03-29T02:46:40.055Z,0
2023-03-29T02:47:40.074Z,0
2023-03-29T02:48:42.403Z,0
2023-03-29T02:49:45.285Z,0
2023-03-29T02:51:40.055Z,0
2023-03-29T02:52:40.067Z,0
2023-03-29T02:54:40.069Z,0
2023-03-29T02:55:40.258Z,0
2023-03-29T02:57:40.041Z,0
2023-03-29T02:58:40.047Z,0
2023-03-29T02:59:40.071Z,0
2023-03-29T03:01:40.063Z,0
2023-03-29T03:02:40.050Z,0
2023-03-29T03:03:40.094Z,0
2023-03-29T03:04:40.062Z,0
2023-03-29T03:06:40.052Z,0
2023-03-29T03:07:40.043Z,0
2023-03-29T03:08:40.042Z,0
2023-03-29T03:09:42.693Z,0
2023-03-29T03:10:45.311Z,0
2023-03-29T03:12:40.105Z,0
2023-03-29T03:13:40.040Z,0
2023-03-29T03:14:40.236Z,0
2023-03-29T03:16:40.206Z,0
2023-03-29T03:18:40.036Z,0
2023-03-29T03:19:40.050Z,0
2023-03-29T03:20:40.051Z,0
2023-03-29T03:21:40.050Z,0
2023-03-29T03:23:40.049Z,0
2023-03-29T03:24:40.038Z,0
2023-03-29T03:26:40.036Z,0
2023-03-29T03:28:40.042Z,0
2023-03-29T03:29:40.033Z,0
2023-03-29T03:30:42.660Z,0
2023-03-29T03:31:45.432Z,0
2023-03-29T03:33:40.039Z,0
2023-03-29T03:34:40.036Z,0
2023-03-29T03:35:40.122Z,0
2023-03-29T03:37:40.035Z,0
2023-03-29T03:38:40.053Z,0
2023-03-29T03:39:40.036Z,0
2023-03-29T03:40:40.061Z,0
2023-03-29T03:42:40.051Z,0
2023-03-29T03:43:40.037Z,0
2023-03-29T03:44:40.049Z,0
2023-03-29T03:45:40.073Z,0
2023-03-29T03:47:40.065Z,0
2023-03-29T03:49:40.061Z,0
2023-03-29T03:50:40.058Z,0
2023-03-29T03:51:42.758Z,0
2023-03-29T03:53:45.050Z,0
2023-03-29T03:55:40.032Z,0
2023-03-29T03:56:40.126Z,0
2023-03-29T03:57:40.038Z,0
2023-03-29T03:58:40.028Z,0
2023-03-29T03:59:40.062Z,0
2023-03-29T04:01:40.033Z,0
2023-03-29T04:02:40.116Z,0
2023-03-29T04:03:40.067Z,0
2023-03-29T04:04:40.061Z,0
2023-03-29T04:08:40.034Z,0
2023-03-29T04:09:40.147Z,0
2023-03-29T04:11:40.041Z,0
2023-03-29T04:12:40.038Z,0
2023-03-29T04:13:42.781Z,0
2023-03-29T04:14:45.669Z,0
2023-03-29T04:16:40.110Z,0
2023-03-29T04:17:40.244Z,0
2023-03-29T04:19:40.120Z,0
2023-03-29T04:21:40.099Z,0
2023-03-29T04:22:40.192Z,0
2023-03-29T04:24:40.142Z,0
2023-03-29T04:25:40.214Z,0
2023-03-29T04:26:40.285Z,0
2023-03-29T04:31:13.992Z,0
2023-03-29T04:32:40.038Z,0.23
2023-03-29T04:33:40.029Z,0.23
2023-03-29T04:34:40.048Z,0.23
2023-03-29T04:36:40.033Z,0.46
2023-03-29T04:37:40.041Z,0.46
2023-03-29T04:38:40.055Z,0.69
2023-03-29T04:39:40.053Z,0.92
2023-03-29T04:40:41.149Z,0.92
2023-03-29T04:41:44.109Z,1.15
2023-03-29T04:42:46.788Z,1.38
2023-03-29T04:44:40.053Z,2.07
2023-03-29T04:46:40.154Z,3.45
2023-03-29T04:48:40.034Z,5.06
2023-03-29T04:49:40.044Z,6.21
2023-03-29T04:50:40.037Z,7.59
2023-03-29T04:51:40.088Z,9.43
2023-03-29T04:53:40.048Z,13.33
2023-03-29T04:54:40.045Z,15.83
2023-03-29T04:55:40.058Z,19.17
2023-03-29T04:56:40.082Z,21.67
2023-03-29T04:58:40.045Z,30
2023-03-29T04:59:40.114Z,35.83
2023-03-29T05:00:40.130Z,41.67
2023-03-29T05:01:41.502Z,48.33
2023-03-29T05:02:44.318Z,55
2023-03-29T05:03:47.061Z,63.33
2023-03-29T05:05:40.046Z,85
2023-03-29T05:06:40.080Z,96.67
2023-03-29T05:07:40.301Z,106.67
2023-03-29T05:09:40.040Z,133.33
2023-03-29T05:10:40.034Z,145
2023-03-29T05:11:40.078Z,155
2023-03-29T05:13:40.041Z,178.33
2023-03-29T05:14:40.054Z,195
2023-03-29T05:15:41.267Z,203.33
2023-03-29T05:16:40.133Z,210.83
2023-03-29T05:18:40.047Z,239.17
2023-03-29T05:20:40.051Z,280
2023-03-29T05:21:40.067Z,281.67
2023-03-29T05:22:41.227Z,276.67
2023-03-29T05:23:44.168Z,280.83
2023-03-29T05:24:46.622Z,294.17
2023-03-29T05:26:40.415Z,315.83
2023-03-29T05:28:40.040Z,326.67
2023-03-29T05:29:40.041Z,320
2023-03-29T05:30:40.036Z,335.83
2023-03-29T05:31:40.078Z,376.67
2023-03-29T05:32:40.115Z,425
2023-03-29T05:33:40.094Z,456.67
2023-03-29T05:35:40.049Z,563.33
2023-03-29T05:36:40.054Z,630.83
2023-03-29T05:37:40.054Z,672.5
2023-03-29T05:39:40.053Z,652.5
2023-03-29T05:41:40.322Z,679.17
2023-03-29T05:42:40.316Z,762.5
2023-03-29T05:43:41.397Z,829.17
2023-03-29T05:44:44.243Z,899.17
2023-03-29T05:45:47.248Z,1058.33
2023-03-29T05:47:40.214Z,1271.67
2023-03-29T05:49:40.048Z,1235
2023-03-29T05:50:40.040Z,1206.67
2023-03-29T05:51:40.033Z,1267.5
2023-03-29T05:52:40.050Z,1337.5
2023-03-29T05:53:40.035Z,1347.5
2023-03-29T05:54:40.072Z,1544.17
2023-03-29T05:56:40.069Z,1540
2023-03-29T05:57:40.040Z,1525
2023-03-29T05:58:40.039Z,1598.33
2023-03-29T05:59:40.083Z,1647.5
2023-03-29T06:01:40.128Z,1504.17
2023-03-29T06:03:40.145Z,1454.17
2023-03-29T06:04:40.131Z,1303.33
2023-03-29T06:05:42.658Z,1328.33
2023-03-29T06:06:45.601Z,1438.33
2023-03-29T06:08:40.050Z,1675
2023-03-29T06:10:40.042Z,1911.67
2023-03-29T06:11:40.051Z,1920
2023-03-29T06:12:40.056Z,1727.5
2023-03-29T06:13:40.058Z,1600.83
2023-03-29T06:14:40.057Z,1392.5
2023-03-29T06:16:42.155Z,1293.33
2023-03-29T06:17:40.106Z,1207.5
2023-03-29T06:18:40.188Z,1170
2023-03-29T06:20:40.057Z,1174.17
2023-03-29T06:21:40.063Z,1193.33
2023-03-29T06:22:40.044Z,1316.67
2023-03-29T06:23:40.042Z,1391.67
2023-03-29T06:24:40.051Z,1402.5
2023-03-29T06:25:41.501Z,1426.67
2023-03-29T06:26:44.443Z,1616.67
2023-03-29T06:27:47.686Z,1798.33
2023-03-29T06:29:40.046Z,1920.83
2023-03-29T06:30:40.063Z,2196.67
2023-03-29T06:32:40.120Z,1996.67
2023-03-29T06:33:40.043Z,1977.5
2023-03-29T06:34:40.057Z,1820
2023-03-29T06:35:40.093Z,1760.83
2023-03-29T06:37:40.051Z,1653.33
2023-03-29T06:38:40.048Z,1825
2023-03-29T06:39:40.158Z,2095.83
2023-03-29T06:41:40.061Z,1754.17
2023-03-29T06:42:40.054Z,1649.17
2023-03-29T06:43:40.050Z,1738.33
2023-03-29T06:45:40.054Z,1755.83
2023-03-29T06:46:41.634Z,1815
2023-03-29T06:47:44.521Z,1906.67
2023-03-29T06:48:47.473Z,2179.17
2023-03-29T06:50:40.061Z,3213.33
2023-03-29T06:51:40.046Z,3415.83
2023-03-29T06:52:40.069Z,3576.67
2023-03-29T06:54:40.044Z,4242.5
2023-03-29T06:55:40.045Z,4399.17
2023-03-29T06:56:40.059Z,4300.83
2023-03-29T06:57:40.105Z,4113.33
2023-03-29T06:59:40.054Z,3495
2023-03-29T07:00:40.233Z,3615
2023-03-29T07:02:40.114Z,3707.5
2023-03-29T07:03:40.055Z,3202.5
2023-03-29T07:04:40.120Z,2897.5
2023-03-29T07:05:40.031Z,2685
2023-03-29T07:06:40.042Z,2760.83
2023-03-29T07:07:41.623Z,2691.67
2023-03-29T07:08:44.563Z,2603.33
2023-03-29T07:09:47.551Z,2515.83
2023-03-29T07:11:40.036Z,3124.17
2023-03-29T07:12:40.054Z,3496.67
2023-03-29T07:13:40.035Z,3787.5
2023-03-29T07:14:40.039Z,3898.33
2023-03-29T07:15:40.040Z,4664.17
2023-03-29T07:16:40.055Z,5220
2023-03-29T07:17:40.067Z,5117.5
2023-03-29T07:19:40.038Z,4572.5
2023-03-29T07:20:40.068Z,4308.33
2023-03-29T07:21:40.096Z,4507.5
2023-03-29T07:22:40.043Z,4735
2023-03-29T07:23:40.046Z,4754.17
2023-03-29T07:24:40.062Z,4883.33
2023-03-29T07:25:40.041Z,5280.83
2023-03-29T07:26:44.009Z,5690
2023-03-29T07:27:40.034Z,5785.83
2023-03-29T07:28:41.807Z,5919.17
2023-03-29T07:29:44.720Z,6184.17
2023-03-29T07:30:47.690Z,6440
2023-03-29T07:32:40.059Z,7480
2023-03-29T07:33:40.216Z,7561.67
2023-03-29T07:34:40.055Z,7443.33
2023-03-29T07:36:40.038Z,8090.83
2023-03-29T07:37:40.050Z,8348.33
2023-03-29T07:39:40.074Z,8488.33
2023-03-29T07:41:40.043Z,8400.83
2023-03-29T07:42:40.038Z,8266.67
2023-03-29T07:43:40.039Z,8245
2023-03-29T07:44:40.057Z,8059.17
2023-03-29T07:46:40.048Z,7681.67
2023-03-29T07:48:40.042Z,7903.33
2023-03-29T07:49:40.064Z,7918.33
2023-03-29T07:50:41.991Z,8095
2023-03-29T07:51:44.847Z,8532.5
2023-03-29T07:53:40.038Z,8635.83
2023-03-29T07:54:40.031Z,9070.83
2023-03-29T07:55:40.034Z,9614.17
2023-03-29T07:56:40.130Z,9924.17
2023-03-29T07:57:40.075Z,9865
2023-03-29T07:59:40.050Z,10296.67
2023-03-29T08:00:40.077Z,9709.17
2023-03-29T08:01:40.038Z,9246.67
2023-03-29T08:02:40.094Z,9798.33
2023-03-29T08:04:40.087Z,10957.5
2023-03-29T08:05:41.598Z,10668.33
2023-03-29T08:06:40.065Z,10295.83
2023-03-29T08:07:40.062Z,10420
2023-03-29T08:09:40.048Z,9471.67
2023-03-29T08:10:40.036Z,9484.17
2023-03-29T08:11:42.053Z,10035
2023-03-29T08:12:45.259Z,10533.33
2023-03-29T08:14:40.055Z,10299.17
2023-03-29T08:15:40.109Z,9914.17
2023-03-29T08:16:40.099Z,10434.17
2023-03-29T08:17:40.100Z,10666.67
2023-03-29T08:18:40.065Z,10403.33
2023-03-29T08:19:40.047Z,10345
2023-03-29T08:20:40.053Z,10560
2023-03-29T08:21:40.062Z,10545
2023-03-29T08:22:40.084Z,10849.17
2023-03-29T08:24:40.062Z,11512.5
2023-03-29T08:25:40.081Z,11065.83
2023-03-29T08:27:40.082Z,12079.17
2023-03-29T08:28:40.068Z,11697.5
2023-03-29T08:29:40.058Z,11512.5
2023-03-29T08:30:40.116Z,11311.67
2023-03-29T08:31:40.144Z,10917.5
2023-03-29T08:32:42.175Z,10865.83
2023-03-29T08:33:44.678Z,11024.17
2023-03-29T08:35:40.067Z,11301.67
2023-03-29T08:36:40.053Z,10569.17
2023-03-29T08:37:40.052Z,9966.67
2023-03-29T08:38:40.042Z,10266.67
2023-03-29T08:39:40.067Z,11073.33
2023-03-29T08:41:40.045Z,12415.83
2023-03-29T08:42:40.054Z,12172.5
2023-03-29T08:43:40.060Z,11627.5
2023-03-29T08:44:40.060Z,12297.5
2023-03-29T08:46:40.049Z,12157.5
2023-03-29T08:47:40.079Z,11438.33
2023-03-29T08:48:40.041Z,11104.17
2023-03-29T08:49:40.080Z,10839.17
2023-03-29T08:51:40.046Z,10466.67
2023-03-29T08:52:40.036Z,10603.33
2023-03-29T08:53:42.287Z,10435.83
2023-03-29T08:54:45.228Z,9598.33
2023-03-29T08:56:40.107Z,8455
2023-03-29T08:57:40.046Z,8925
2023-03-29T08:58:40.052Z,9650
2023-03-29T08:59:40.079Z,10450.83
2023-03-29T09:00:40.175Z,10532.5
2023-03-29T09:02:40.100Z,9896.67
2023-03-29T09:03:40.116Z,10721.67
2023-03-29T09:04:40.061Z,11240
2023-03-29T09:05:40.057Z,10911.67
2023-03-29T09:06:40.039Z,10990
2023-03-29T09:07:40.054Z,11376.67
2023-03-29T09:08:40.077Z,12084.17
2023-03-29T09:09:40.076Z,13785.83
2023-03-29T09:11:40.041Z,15230.83
2023-03-29T09:12:40.043Z,12963.33
2023-03-29T09:13:40.037Z,12159.17
2023-03-29T09:14:42.321Z,11180
2023-03-29T09:15:45.368Z,9960.83
2023-03-29T09:17:40.072Z,9295
2023-03-29T09:18:40.039Z,10005
2023-03-29T09:19:40.059Z,10329.17
2023-03-29T09:21:40.184Z,8635.83
2023-03-29T09:22:40.040Z,7677.5
2023-03-29T09:23:40.050Z,7328.33
2023-03-29T09:24:40.072Z,6676.67
2023-03-29T09:26:40.031Z,6533.33
2023-03-29T09:27:40.042Z,6601.67
2023-03-29T09:28:40.038Z,7210
2023-03-29T09:29:40.088Z,8070
2023-03-29T09:31:40.052Z,8135.83
2023-03-29T09:32:40.072Z,7816.67
2023-03-29T09:34:40.065Z,7919.17
2023-03-29T09:35:42.466Z,7965.83
2023-03-29T09:36:45.386Z,7975.83
2023-03-29T09:38:40.039Z,9088.33
2023-03-29T09:39:40.070Z,10838.33
2023-03-29T09:41:40.038Z,11057.5
2023-03-29T09:42:40.029Z,10795
2023-03-29T09:43:40.037Z,11150.83
2023-03-29T09:44:40.081Z,10242.5
2023-03-29T09:46:40.046Z,10753.33
2023-03-29T09:47:40.064Z,9474.17
2023-03-29T09:48:40.060Z,7965
2023-03-29T09:49:40.047Z,7552.5
2023-03-29T09:50:40.041Z,7110.83
2023-03-29T09:51:40.031Z,6740.83
2023-03-29T09:52:40.054Z,6710.83
2023-03-29T09:53:40.054Z,6505
2023-03-29T09:54:40.046Z,6455.83
2023-03-29T09:55:40.052Z,6558.33
2023-03-29T09:56:42.526Z,6347.5
2023-03-29T09:57:45.461Z,5850.83
2023-03-29T09:59:40.050Z,5245.83
2023-03-29T10:00:40.044Z,5020.83
2023-03-29T10:01:40.059Z,4774.17
2023-03-29T10:02:40.061Z,4673.33
2023-03-29T10:03:40.038Z,4642.5
2023-03-29T10:04:40.096Z,4714.17
2023-03-29T10:05:40.051Z,5065.83
2023-03-29T10:06:40.045Z,5805
2023-03-29T10:07:40.050Z,6570
2023-03-29T10:08:40.048Z,7281.67
2023-03-29T10:09:40.051Z,7757.5
2023-03-29T10:10:40.041Z,7980
2023-03-29T10:11:40.052Z,6967.5
2023-03-29T10:12:40.040Z,5683.33
2023-03-29T10:13:40.058Z,5344.17
2023-03-29T10:14:40.047Z,5845
2023-03-29T10:15:40.043Z,5984.17
2023-03-29T10:16:40.057Z,5842.5
2023-03-29T10:17:42.585Z,6829.17
2023-03-29T10:19:45.100Z,9720.83
2023-03-29T10:21:40.035Z,9385.83
2023-03-29T10:22:40.059Z,11314.17
2023-03-29T10:24:40.082Z,9051.67
2023-03-29T10:25:42.260Z,9260.83
2023-03-29T10:26:40.043Z,9785.83
2023-03-29T10:27:40.069Z,9157.5
2023-03-29T10:29:40.043Z,8822.5
2023-03-29T10:30:40.053Z,8539.17
2023-03-29T10:31:40.054Z,8635.83
2023-03-29T10:32:40.143Z,8570.83
2023-03-29T10:34:40.052Z,8961.67
2023-03-29T10:35:40.285Z,8297.5
2023-03-29T10:37:40.070Z,8637.5
2023-03-29T10:39:42.847Z,9377.5
2023-03-29T10:40:45.793Z,10371.67
2023-03-29T10:42:40.066Z,12035
2023-03-29T10:43:40.078Z,11497.5
2023-03-29T10:45:40.044Z,14343.33
2023-03-29T10:46:40.243Z,13388.33
2023-03-29T10:47:40.073Z,11290
2023-03-29T10:48:40.064Z,9755.83
2023-03-29T10:50:40.043Z,7393.33
2023-03-29T10:51:40.047Z,7096.67
2023-03-29T10:52:40.053Z,7510
2023-03-29T10:53:40.068Z,7492.5
2023-03-29T10:55:40.041Z,7530.83
2023-03-29T10:57:40.086Z,6812.5
2023-03-29T10:58:40.067Z,7133.33
2023-03-29T11:00:42.013Z,8609.17
2023-03-29T11:01:45.325Z,9315.83
2023-03-29T11:04:40.055Z,10608.33
2023-03-29T11:06:40.060Z,9167.5
2023-03-29T11:07:40.204Z,8984.17
2023-03-29T11:08:40.039Z,9483.33
2023-03-29T11:09:40.055Z,11581.67
2023-03-29T11:11:40.053Z,9656.67
2023-03-29T11:12:40.045Z,9846.67
2023-03-29T11:13:40.043Z,10752.5
2023-03-29T11:14:40.049Z,9715.83
2023-03-29T11:16:40.035Z,9415.83
2023-03-29T11:17:40.066Z,9678.33
2023-03-29T11:18:40.032Z,10274.17
2023-03-29T11:19:40.052Z,9505.83
2023-03-29T11:20:40.188Z,7730
2023-03-29T11:21:42.593Z,7507.5
2023-03-29T11:22:45.902Z,8300.83
2023-03-29T11:24:40.048Z,8240.83
2023-03-29T11:25:40.070Z,8705
2023-03-29T11:26:40.048Z,8971.67
2023-03-29T11:27:40.045Z,7983.33
2023-03-29T11:28:40.048Z,6005.83
2023-03-29T11:29:40.037Z,5611.67
2023-03-29T11:30:40.057Z,5485.83
2023-03-29T11:32:40.068Z,7402.5
2023-03-29T11:33:40.029Z,7730.83
2023-03-29T11:34:40.041Z,8204.17
2023-03-29T11:35:40.100Z,8200
2023-03-29T11:36:40.067Z,8773.33
2023-03-29T11:37:40.056Z,8571.67
2023-03-29T11:38:40.032Z,8543.33
2023-03-29T11:39:40.069Z,8096.67
2023-03-29T11:40:40.051Z,7586.67
2023-03-29T11:41:40.060Z,6776.67
2023-03-29T11:42:42.662Z,6137.5
2023-03-29T11:43:45.862Z,6096.67
2023-03-29T11:45:40.064Z,6085.83
2023-03-29T11:46:40.056Z,6289.17
2023-03-29T11:47:40.083Z,7210.83
2023-03-29T11:48:40.048Z,9255.83
2023-03-29T11:49:40.049Z,9400
2023-03-29T11:51:40.030Z,7891.67
2023-03-29T11:52:40.040Z,9025.83
2023-03-29T11:53:40.030Z,9907.5
2023-03-29T11:54:40.049Z,10785
2023-03-29T11:56:40.066Z,8134.17
2023-03-29T11:57:40.045Z,8230.83
2023-03-29T11:58:40.044Z,9985
2023-03-29T11:59:40.079Z,11440.83
2023-03-29T12:01:40.054Z,10091.67
2023-03-29T12:02:40.515Z,8797.5
2023-03-29T12:03:45.579Z,8310
2023-03-29T12:04:46.306Z,7845
2023-03-29T12:06:40.036Z,8317.5
2023-03-29T12:07:40.035Z,8975.83
2023-03-29T12:08:40.044Z,8811.67
2023-03-29T12:09:40.061Z,8207.5
2023-03-29T12:11:40.044Z,11303.33
2023-03-29T12:12:40.063Z,10505.83
2023-03-29T12:13:40.235Z,10026.67
2023-03-29T12:15:40.045Z,9856.67
2023-03-29T12:17:40.058Z,8850.83
2023-03-29T12:18:40.274Z,8599.17
2023-03-29T12:20:40.051Z,12533.33
2023-03-29T12:21:40.033Z,12366.67
2023-03-29T12:22:40.040Z,10840
2023-03-29T12:23:40.448Z,10600
2023-03-29T12:24:42.855Z,10870.83
2023-03-29T12:25:46.208Z,9440.83
2023-03-29T12:27:40.050Z,8854.17
2023-03-29T12:28:40.045Z,8595
2023-03-29T12:29:40.035Z,9600.83
2023-03-29T12:30:40.131Z,12400.83
2023-03-29T12:32:40.053Z,22977.5
2023-03-29T12:33:40.042Z,30381.67
2023-03-29T12:34:40.060Z,26856.67
2023-03-29T12:36:40.033Z,24160
2023-03-29T12:37:40.047Z,21701.67
2023-03-29T12:38:40.045Z,18698.33
2023-03-29T12:39:40.063Z,21729.17
2023-03-29T12:40:40.050Z,31321.67
2023-03-29T12:41:40.023Z,22891.67
2023-03-29T12:42:40.043Z,29727.5
2023-03-29T12:43:40.062Z,32475
2023-03-29T12:44:40.544Z,25872.5
2023-03-29T12:45:43.118Z,28740
2023-03-29T12:46:46.482Z,25807.5
2023-03-29T12:48:40.039Z,20853.33
2023-03-29T12:49:40.053Z,18712.5
2023-03-29T12:50:40.041Z,18568.33
2023-03-29T12:51:40.054Z,17720.83
2023-03-29T12:52:40.034Z,18937.5
2023-03-29T12:53:40.041Z,21520.83
2023-03-29T12:54:40.047Z,25226.67
2023-03-29T12:55:40.177Z,17863.33
2023-03-29T12:57:40.038Z,26420
2023-03-29T12:58:40.204Z,58538.59
2023-03-29T13:00:40.065Z,38715.83
2023-03-29T13:01:40.106Z,29035
2023-03-29T13:03:40.042Z,30220.83
2023-03-29T13:04:40.041Z,54420.15
2023-03-29T13:05:40.683Z,45154.16
2023-03-29T13:06:43.108Z,19155.83
2023-03-29T13:07:45.891Z,18309.17
2023-03-29T13:09:40.041Z,37318.33
2023-03-29T13:10:40.050Z,36208.33
2023-03-29T13:11:40.088Z,31300.83
2023-03-29T13:13:40.048Z,43330.83
2023-03-29T13:15:40.095Z,20582.5
2023-03-29T13:17:40.080Z,28652.5
2023-03-29T13:18:40.050Z,16061.67
2023-03-29T13:20:40.064Z,12367.5
2023-03-29T13:22:40.049Z,10880.83
2023-03-29T13:23:40.052Z,9305
2023-03-29T13:24:40.036Z,9450
2023-03-29T13:25:40.056Z,9031.67
2023-03-29T13:27:41.112Z,10049.17
2023-03-29T13:28:43.895Z,11801.67
2023-03-29T13:29:46.257Z,11352.5
2023-03-29T13:31:40.078Z,10793.33
2023-03-29T13:32:40.087Z,10131.67
2023-03-29T13:34:40.090Z,9856.67
2023-03-29T13:36:40.039Z,11926.67
2023-03-29T13:37:40.069Z,12033.33
2023-03-29T13:38:40.065Z,10900.83
2023-03-29T13:39:40.049Z,10240
2023-03-29T13:40:40.096Z,10638.33
2023-03-29T13:42:40.059Z,11070
2023-03-29T13:43:40.047Z,10439.17
2023-03-29T13:44:40.075Z,9231.67
2023-03-29T13:45:40.040Z,8327.5
2023-03-29T13:46:40.093Z,7695.83
2023-03-29T13:47:40.229Z,6950.83
2023-03-29T13:48:41.304Z,6655
2023-03-29T13:49:44.154Z,7144.17
2023-03-29T13:50:47.053Z,8458.33
2023-03-29T13:52:40.054Z,9465
2023-03-29T13:53:40.080Z,8654.17
2023-03-29T13:55:40.054Z,7223.33
2023-03-29T13:56:40.161Z,6844.17
2023-03-29T13:57:40.063Z,6311.67
2023-03-29T13:58:40.066Z,5880
2023-03-29T14:00:40.093Z,5340
2023-03-29T14:01:40.081Z,4823.33
2023-03-29T14:02:40.101Z,4640
2023-03-29T14:03:40.057Z,4534.17
2023-03-29T14:04:40.053Z,4926.67
2023-03-29T14:05:40.064Z,5391.67
2023-03-29T14:06:40.059Z,5530.83
2023-03-29T14:07:40.126Z,5983.33
2023-03-29T14:09:41.249Z,5771.67
2023-03-29T14:10:44.395Z,5305.83
2023-03-29T14:11:47.386Z,5295
2023-03-29T14:13:40.073Z,6531.67
2023-03-29T14:14:48.354Z,6835
2023-03-29T14:16:40.125Z,8204.17
2023-03-29T14:17:40.084Z,9048.33
2023-03-29T14:18:40.079Z,8745.83
2023-03-29T14:20:40.038Z,6956.67
2023-03-29T14:21:40.051Z,6705
2023-03-29T14:22:40.048Z,6983.33
2023-03-29T14:23:40.046Z,7525.83
2023-03-29T14:24:40.066Z,8300.83
2023-03-29T14:26:40.055Z,9899.17
2023-03-29T14:27:40.068Z,10150.83
2023-03-29T14:29:40.057Z,11669.17
2023-03-29T14:30:41.380Z,12093.33
2023-03-29T14:31:44.259Z,12274.17
2023-03-29T14:32:47.286Z,11646.67
2023-03-29T14:34:40.155Z,11850
2023-03-29T14:35:40.215Z,11589.17
2023-03-29T14:37:40.037Z,10375.83
2023-03-29T14:38:40.071Z,10595.83
2023-03-29T14:40:40.039Z,10248.33
2023-03-29T14:41:40.076Z,9740
2023-03-29T14:43:40.095Z,10251.67
2023-03-29T14:45:40.061Z,12648.33
2023-03-29T14:46:40.080Z,13795.83
2023-03-29T14:47:40.077Z,15605.83
2023-03-29T14:49:40.054Z,14250
2023-03-29T14:50:40.032Z,13735
2023-03-29T14:51:41.549Z,12974.17
2023-03-29T14:52:46.875Z,12853.33
2023-03-29T14:53:47.455Z,12300
2023-03-29T14:55:40.053Z,10937.5
2023-03-29T14:56:40.079Z,10044.17
2023-03-29T14:57:40.043Z,10380.83
2023-03-29T14:58:40.062Z,10262.5
2023-03-29T14:59:40.066Z,10154.17
2023-03-29T15:01:40.093Z,9625
2023-03-29T15:02:40.261Z,9116.67
2023-03-29T15:04:40.065Z,9401.67
2023-03-29T15:05:40.174Z,9940.83
2023-03-29T15:07:40.072Z,9576.67
2023-03-29T15:08:42.659Z,9061.67
2023-03-29T15:09:40.066Z,8465
2023-03-29T15:10:40.861Z,7751.67
2023-03-29T15:11:40.089Z,7106.67
2023-03-29T15:12:41.605Z,6945
2023-03-29T15:13:44.419Z,7160.83
2023-03-29T15:14:47.479Z,7614.17
2023-03-29T15:16:40.048Z,8706.67
2023-03-29T15:17:50.846Z,8930.83
2023-03-29T15:18:40.154Z,9049.17
2023-03-29T15:19:40.042Z,9105.83
2023-03-29T15:20:40.049Z,9201.67
2023-03-29T15:21:40.034Z,9375.83
2023-03-29T15:22:40.041Z,9645
2023-03-29T15:23:40.036Z,9957.5
2023-03-29T15:24:40.039Z,10080.83
2023-03-29T15:25:40.041Z,10000
2023-03-29T15:26:40.167Z,9827.5
2023-03-29T15:28:40.059Z,9260
2023-03-29T15:30:40.054Z,8605.83
2023-03-29T15:31:40.085Z,8270.83
2023-03-29T15:33:41.841Z,8235.83
2023-03-29T15:34:44.553Z,8019.17
2023-03-29T15:35:47.838Z,7795.83
2023-03-29T15:37:40.049Z,7510.83
2023-03-29T15:38:44.375Z,7405
2023-03-29T15:39:40.052Z,7295.83
2023-03-29T15:40:40.140Z,7168.33
2023-03-29T15:41:40.051Z,6987.5
2023-03-29T15:42:40.052Z,6709.17
2023-03-29T15:43:40.041Z,6348.33
2023-03-29T15:44:40.047Z,5962.5
2023-03-29T15:45:40.036Z,5520.83
2023-03-29T15:46:40.084Z,5148.33
2023-03-29T15:47:40.217Z,5020
2023-03-29T15:49:40.051Z,5272.5
2023-03-29T15:51:40.028Z,5721.67
2023-03-29T15:52:40.040Z,6047.5
2023-03-29T15:54:41.763Z,6382.5
2023-03-29T15:55:44.629Z,6601.67
2023-03-29T15:56:47.725Z,7039.17
2023-03-29T15:58:40.040Z,7605.83
2023-03-29T15:59:40.090Z,7549.17
2023-03-29T16:00:40.074Z,7445
2023-03-29T16:01:40.093Z,7381.67
2023-03-29T16:02:40.225Z,7371.67
2023-03-29T16:03:40.042Z,7389.17
2023-03-29T16:04:40.039Z,7322.5
2023-03-29T16:05:40.045Z,7272.5
2023-03-29T16:06:40.054Z,7251.67
2023-03-29T16:07:40.074Z,7190.83
2023-03-29T16:09:40.045Z,7047.5
2023-03-29T16:10:40.039Z,7006.67
2023-03-29T16:11:40.049Z,6945
2023-03-29T16:12:40.078Z,6825.83
2023-03-29T16:14:41.920Z,6495.83
2023-03-29T16:16:41.957Z,5995.83
2023-03-29T16:17:44.817Z,5677.5
2023-03-29T16:19:40.052Z,5155